Time;durP1;ratioP1;P1;durP2;ratioP2;P2;SDS_P1;SDS_P2;PMS_P1;PMS_P2;Temp;Humidity;BMP_temperature;BMP_pressure;BME280_temperature;BME280_humidity;BME280_pressure;Samples;Min_cycle;Max_cycle;Signal;HPM_P1;HPM_P2
2023/09/27 00:01:04;;;;;;;3.03;2.60;;;20.30;99.90;;;;;;5074640;28;20179;-88
2023/09/27 00:05:58;;;;;;;2.60;2.40;;;20.50;99.90;;;;;;5086838;28;20283;-8
2023/09/27 00:08:24;;;;;;;2.57;2.23;;;20.50;99.90;;;;;;5089687;28;20186;-9
2023/09/27 00:10:49;;;;;;;3.90;2.50;;;20.50;99.90;;;;;;5091262;28;20437;-9
2023/09/27 00:13:16;;;;;;;4.20;2.40;;;20.50;99.90;;;;;;5091073;28;20278;-9
2023/09/27 00:15:42;;;;;;;3.30;2.70;;;20.50;99.90;;;;;;5092114;28;20270;-9
2023/09/27 00:18:09;;;;;;;3.00;2.67;;;20.50;99.90;;;;;;5093330;28;20203;-9
2023/09/27 00:20:35;;;;;;;3.10;2.63;;;20.60;99.90;;;;;;5092991;28;20506;-8
2023/09/27 00:23:01;;;;;;;4.17;2.80;;;20.50;99.90;;;;;;5092646;28;20181;-10
2023/09/27 00:25:27;;;;;;;4.03;2.60;;;20.50;99.90;;;;;;5093997;28;20499;-9
2023/09/27 00:27:53;;;;;;;3.10;2.50;;;20.60;99.90;;;;;;5092280;28;20587;-9
2023/09/27 00:30:18;;;;;;;4.37;2.70;;;20.60;99.90;;;;;;5091981;28;20244;-10
2023/09/27 00:32:47;;;;;;;3.33;2.70;;;20.60;99.90;;;;;;5091229;28;20270;-10
2023/09/27 00:35:21;;;;;;;3.00;2.70;;;20.50;99.90;;;;;;5093140;28;20265;-9
2023/09/27 00:37:47;;;;;;;3.17;2.87;;;20.60;99.90;;;;;;5091953;28;20236;-9
2023/09/27 00:40:15;;;;;;;3.93;2.73;;;20.60;99.90;;;;;;5093256;28;20573;-9
2023/09/27 00:42:41;;;;;;;4.23;3.20;;;20.60;99.90;;;;;;5093695;28;20175;-10
2023/09/27 00:45:07;;;;;;;4.57;3.03;;;20.50;99.90;;;;;;5094058;28;20173;-8
2023/09/27 00:47:34;;;;;;;4.37;2.97;;;20.60;99.90;;;;;;5092678;28;20174;-9
2023/09/27 00:50:00;;;;;;;4.20;2.87;;;20.60;99.90;;;;;;5093474;28;20170;-10
2023/09/27 00:52:26;;;;;;;3.53;2.83;;;20.60;99.90;;;;;;5091856;28;20163;-10
2023/09/27 00:54:53;;;;;;;4.00;2.77;;;20.60;99.90;;;;;;5091988;28;20379;-9
2023/09/27 00:57:19;;;;;;;4.10;3.07;;;20.60;99.90;;;;;;5091672;28;20479;-9
2023/09/27 00:59:45;;;;;;;4.87;2.90;;;20.60;99.90;;;;;;5091556;28;20182;-9
2023/09/27 01:02:12;;;;;;;4.17;2.90;;;20.60;99.90;;;;;;5093719;28;20179;-9
2023/09/27 01:04:39;;;;;;;2.83;2.60;;;20.60;99.90;;;;;;5102498;28;20186;-9
2023/09/27 01:07:07;;;;;;;2.93;2.60;;;20.60;99.90;;;;;;5112259;28;20193;-9
2023/09/27 01:09:33;;;;;;;3.77;3.00;;;20.50;99.80;;;;;;5113373;28;20178;-10
2023/09/27 01:11:59;;;;;;;3.53;3.00;;;20.50;99.80;;;;;;5113194;28;20268;-9
2023/09/27 01:14:25;;;;;;;3.77;3.10;;;20.50;99.80;;;;;;5115241;28;20470;-9
2023/09/27 01:16:51;;;;;;;3.30;3.00;;;20.50;99.80;;;;;;5115336;28;20173;-10
2023/09/27 01:19:16;;;;;;;3.20;2.90;;;20.50;99.90;;;;;;5114731;28;20206;-9
2023/09/27 01:21:43;;;;;;;3.23;2.73;;;20.40;99.90;;;;;;5105721;28;20182;-9
2023/09/27 01:24:10;;;;;;;3.47;2.83;;;20.40;99.90;;;;;;5110071;28;20180;-10
2023/09/27 01:26:37;;;;;;;3.30;3.00;;;20.40;99.90;;;;;;5111782;28;20166;-9
2023/09/27 01:29:04;;;;;;;2.90;2.60;;;20.40;99.90;;;;;;5108760;28;20197;-9
2023/09/27 01:31:31;;;;;;;3.17;2.80;;;20.40;99.90;;;;;;5111644;28;20177;-9
2023/09/27 01:33:56;;;;;;;3.03;2.73;;;20.40;99.90;;;;;;5110285;28;20363;-9
2023/09/27 01:36:22;;;;;;;3.10;2.80;;;20.40;99.90;;;;;;5108924;28;20190;-8
2023/09/27 01:38:48;;;;;;;3.20;2.83;;;20.40;99.90;;;;;;5110832;28;20254;-10
2023/09/27 01:41:14;;;;;;;3.50;2.63;;;20.40;99.90;;;;;;5111057;28;20174;-9
2023/09/27 01:43:40;;;;;;;3.33;2.63;;;20.40;99.90;;;;;;5111583;28;20167;-8
2023/09/27 01:46:06;;;;;;;2.77;2.53;;;20.40;99.90;;;;;;5110830;28;20516;-8
2023/09/27 01:48:31;;;;;;;3.37;2.87;;;20.40;99.90;;;;;;5111894;28;20566;-9
2023/09/27 01:50:57;;;;;;;3.17;2.50;;;20.10;99.90;;;;;;5112509;28;20208;-10
2023/09/27 01:53:23;;;;;;;3.17;2.40;;;20.00;99.90;;;;;;5114321;28;20205;-9
2023/09/27 01:55:48;;;;;;;3.13;2.80;;;20.00;99.90;;;;;;5112701;28;20170;-9
2023/09/27 01:58:14;;;;;;;2.90;2.60;;;20.10;99.90;;;;;;5112974;28;20202;-10
2023/09/27 02:00:40;;;;;;;2.80;2.60;;;20.20;99.90;;;;;;5110664;28;20576;-9
2023/09/27 02:03:06;;;;;;;3.63;2.87;;;20.10;99.90;;;;;;5104923;28;20194;-9
2023/09/27 02:05:32;;;;;;;3.00;2.50;;;20.10;99.90;;;;;;5095814;28;20190;-9
2023/09/27 02:07:58;;;;;;;2.80;2.50;;;20.20;99.90;;;;;;5091430;28;20175;-9
2023/09/27 02:10:24;;;;;;;2.93;2.47;;;20.20;99.90;;;;;;5091666;28;20171;-10
2023/09/27 02:12:50;;;;;;;4.67;2.80;;;20.30;99.90;;;;;;5091513;28;20185;-9
2023/09/27 02:15:16;;;;;;;3.43;2.93;;;20.20;99.90;;;;;;5090624;28;20205;-10
2023/09/27 02:17:43;;;;;;;3.97;2.70;;;20.10;99.90;;;;;;5090783;28;20199;-10
2023/09/27 02:20:11;;;;;;;3.40;2.50;;;20.00;99.90;;;;;;5088958;28;20178;-9
2023/09/27 02:22:38;;;;;;;3.30;2.60;;;20.00;99.90;;;;;;5089871;28;20199;-9
2023/09/27 02:25:08;;;;;;;2.90;2.70;;;20.10;99.90;;;;;;5090246;28;20237;-9
2023/09/27 02:27:35;;;;;;;5.20;2.73;;;20.10;99.90;;;;;;5092395;28;20177;-9
2023/09/27 02:30:01;;;;;;;2.73;2.53;;;20.10;99.90;;;;;;5092429;28;20174;-9
2023/09/27 02:32:27;;;;;;;3.10;2.73;;;20.10;99.90;;;;;;5093006;28;20179;-9
2023/09/27 02:34:53;;;;;;;3.83;2.60;;;20.20;99.90;;;;;;5091809;28;20216;-10
2023/09/27 02:37:20;;;;;;;3.80;2.53;;;20.20;99.90;;;;;;5092964;28;20181;-10
2023/09/27 02:39:46;;;;;;;4.40;2.57;;;20.20;99.90;;;;;;5092939;28;20163;-9
2023/09/27 02:42:12;;;;;;;2.87;2.57;;;20.20;99.90;;;;;;5093069;28;20182;-9
2023/09/27 02:44:38;;;;;;;2.50;2.30;;;20.20;99.90;;;;;;5094999;28;20173;-10
2023/09/27 02:47:07;;;;;;;3.53;3.03;;;20.20;99.90;;;;;;5095534;28;20167;-10
2023/09/27 02:49:35;;;;;;;2.97;2.60;;;20.20;99.90;;;;;;5095642;28;20524;-10
2023/09/27 02:52:00;;;;;;;3.10;2.43;;;20.20;99.90;;;;;;5094839;28;20527;-10
2023/09/27 02:54:27;;;;;;;3.20;2.80;;;20.20;99.90;;;;;;5096393;28;20564;-9
2023/09/27 02:56:53;;;;;;;2.80;2.60;;;20.10;99.90;;;;;;5096352;28;20178;-9
2023/09/27 02:59:19;;;;;;;2.77;2.50;;;20.10;99.90;;;;;;5093921;28;20663;-9
2023/09/27 03:01:44;;;;;;;3.53;2.50;;;20.10;99.90;;;;;;5095674;28;20273;-10
2023/09/27 03:04:11;;;;;;;3.63;2.73;;;20.10;99.90;;;;;;5095830;28;20185;-11
2023/09/27 03:06:41;;;;;;;3.53;2.80;;;20.00;99.90;;;;;;5096201;28;20310;-8
2023/09/27 03:09:08;;;;;;;3.70;2.50;;;19.80;99.90;;;;;;5093585;28;20246;-9
2023/09/27 03:11:36;;;;;;;3.17;2.60;;;19.60;99.90;;;;;;5093360;28;20163;-9
2023/09/27 03:14:02;;;;;;;2.73;2.40;;;19.70;99.90;;;;;;5096316;28;20174;-9
2023/09/27 03:16:29;;;;;;;3.00;2.70;;;19.80;99.90;;;;;;5093254;28;20299;-10
2023/09/27 03:18:54;;;;;;;3.20;2.70;;;19.90;99.90;;;;;;5092555;28;20215;-9
2023/09/27 03:21:21;;;;;;;3.67;2.70;;;20.00;99.90;;;;;;5092692;28;20171;-11
2023/09/27 03:23:47;;;;;;;2.60;2.40;;;20.00;99.90;;;;;;5093418;28;20257;-9
2023/09/27 03:26:13;;;;;;;3.33;2.67;;;20.10;99.90;;;;;;5093754;28;20175;-9
2023/09/27 03:28:38;;;;;;;3.47;2.60;;;20.10;99.90;;;;;;5094337;28;20186;-9
2023/09/27 03:31:05;;;;;;;2.93;2.60;;;20.10;99.90;;;;;;5091970;28;20230;-10
2023/09/27 03:33:31;;;;;;;2.97;2.67;;;20.10;99.90;;;;;;5092494;28;20534;-9
2023/09/27 03:35:58;;;;;;;3.47;2.70;;;20.10;99.90;;;;;;5093413;28;20175;-9
2023/09/27 03:38:24;;;;;;;4.83;3.00;;;20.10;99.90;;;;;;5093122;28;20210;-11
2023/09/27 03:40:51;;;;;;;3.40;2.90;;;20.10;99.90;;;;;;5093713;28;20175;-9
2023/09/27 03:43:17;;;;;;;3.20;2.70;;;20.00;99.90;;;;;;5094402;28;20591;-10
2023/09/27 03:45:43;;;;;;;2.87;2.57;;;20.00;99.90;;;;;;5093843;28;20171;-9
2023/09/27 03:48:09;;;;;;;3.10;2.70;;;20.00;99.90;;;;;;5093362;28;20382;-10
2023/09/27 03:50:34;;;;;;;3.27;2.80;;;20.00;99.90;;;;;;5092190;28;20179;-10
2023/09/27 03:53:00;;;;;;;3.60;2.70;;;20.00;99.90;;;;;;5091720;28;20547;-9
2023/09/27 03:55:27;;;;;;;2.67;2.30;;;20.00;99.90;;;;;;5091777;28;20167;-8
2023/09/27 03:57:53;;;;;;;3.10;2.80;;;20.00;99.90;;;;;;5091341;28;20211;-10
2023/09/27 04:00:19;;;;;;;2.87;2.50;;;20.00;99.90;;;;;;5091271;28;20228;-9
2023/09/27 04:02:46;;;;;;;3.40;2.70;;;20.00;99.90;;;;;;5091406;28;20178;-9
2023/09/27 04:05:12;;;;;;;3.20;2.70;;;20.00;99.80;;;;;;5090027;28;20468;-10
2023/09/27 04:07:39;;;;;;;3.10;2.80;;;20.00;99.80;;;;;;5090642;28;20175;-10
2023/09/27 04:10:07;;;;;;;3.27;2.70;;;20.00;99.80;;;;;;5090494;28;20182;-9
2023/09/27 04:12:34;;;;;;;3.57;2.87;;;20.00;99.80;;;;;;5089985;28;20167;-10
2023/09/27 04:14:59;;;;;;;3.93;2.90;;;20.00;99.70;;;;;;5090122;28;20182;-9
2023/09/27 04:17:25;;;;;;;3.27;2.97;;;20.00;99.70;;;;;;5089716;28;20194;-10
2023/09/27 04:19:52;;;;;;;3.40;2.70;;;20.00;99.70;;;;;;5090458;28;20167;-9
2023/09/27 04:22:18;;;;;;;3.20;2.67;;;20.00;99.90;;;;;;5090218;28;20171;-10
2023/09/27 04:24:44;;;;;;;3.33;3.00;;;19.90;99.70;;;;;;5093578;28;20167;-9
2023/09/27 04:27:10;;;;;;;3.33;2.80;;;19.90;99.70;;;;;;5093730;28;20335;-8
2023/09/27 04:29:35;;;;;;;3.07;2.77;;;19.90;99.70;;;;;;5093178;28;20179;-11
2023/09/27 04:32:01;;;;;;;3.63;2.80;;;19.90;99.60;;;;;;5091033;28;20170;-9
2023/09/27 04:34:28;;;;;;;3.50;2.73;;;19.90;99.60;;;;;;5091797;28;20175;-10
2023/09/27 04:36:54;;;;;;;3.53;2.90;;;19.90;99.60;;;;;;5089579;28;20229;-10
2023/09/27 04:39:20;;;;;;;3.30;2.60;;;19.90;99.60;;;;;;5091473;28;20207;-10
2023/09/27 04:41:46;;;;;;;3.67;2.67;;;19.90;99.60;;;;;;5089407;28;20202;-9
2023/09/27 04:44:15;;;;;;;3.10;2.73;;;19.90;99.60;;;;;;5092957;28;20181;-9
2023/09/27 04:46:41;;;;;;;3.77;2.97;;;19.90;99.60;;;;;;5093480;28;20459;-10
2023/09/27 04:49:07;;;;;;;3.13;2.80;;;19.90;99.50;;;;;;5091820;28;20547;-9
2023/09/27 04:51:33;;;;;;;3.67;2.90;;;19.90;99.50;;;;;;5093120;28;20384;-10
2023/09/27 04:54:02;;;;;;;4.00;3.20;;;19.90;99.50;;;;;;5090486;28;20421;-9
2023/09/27 04:56:31;;;;;;;5.23;3.17;;;19.90;99.50;;;;;;5090843;28;20175;-8
2023/09/27 04:58:58;;;;;;;3.83;3.03;;;19.90;99.40;;;;;;5089193;28;20339;-10
2023/09/27 05:01:25;;;;;;;3.87;2.90;;;19.90;99.50;;;;;;5096927;22;20452;-8
2023/09/27 05:03:51;;;;;;;3.10;2.80;;;19.80;99.50;;;;;;5089533;28;20266;-11
2023/09/27 05:06:16;;;;;;;3.53;2.60;;;19.80;99.40;;;;;;5091637;28;20266;-9
2023/09/27 05:08:42;;;;;;;3.33;3.03;;;19.80;99.50;;;;;;5072409;28;20678;-11
2023/09/27 05:11:08;;;;;;;3.03;2.73;;;19.80;99.40;;;;;;5088741;28;20655;-10
2023/09/27 05:13:34;;;;;;;4.80;3.10;;;19.80;99.40;;;;;;5073468;28;20276;-9
2023/09/27 05:16:00;;;;;;;3.73;3.10;;;19.80;99.40;;;;;;5071635;28;20182;-9
2023/09/27 05:18:26;;;;;;;5.40;3.30;;;19.80;99.50;;;;;;5071626;28;20218;-10
2023/09/27 05:20:52;;;;;;;3.80;3.37;;;19.70;99.80;;;;;;5090565;28;20169;-10
2023/09/27 05:23:17;;;;;;;3.77;3.17;;;19.50;99.90;;;;;;5096042;28;20186;-9
2023/09/27 05:25:44;;;;;;;3.60;3.30;;;19.30;99.90;;;;;;5096455;28;20482;-9
2023/09/27 05:28:10;;;;;;;3.77;3.00;;;19.40;99.90;;;;;;5071286;28;20179;-11
2023/09/27 05:30:36;;;;;;;4.73;3.20;;;19.40;99.90;;;;;;5066654;28;20179;-9
2023/09/27 05:33:04;;;;;;;4.10;3.10;;;19.50;99.90;;;;;;5049141;28;20336;-9
2023/09/27 05:35:30;;;;;;;7.43;2.93;;;19.60;99.90;;;;;;5080880;28;20438;-10
2023/09/27 05:37:58;;;;;;;3.40;2.80;;;19.70;99.90;;;;;;5083146;28;20198;-9
2023/09/27 05:40:24;;;;;;;6.47;3.33;;;19.70;99.90;;;;;;5064401;28;20591;-10
2023/09/27 05:42:50;;;;;;;9.10;3.40;;;19.80;99.90;;;;;;5083204;28;20205;-11
2023/09/27 05:45:16;;;;;;;5.43;3.30;;;19.80;99.90;;;;;;5067753;28;20273;-9
2023/09/27 05:47:42;;;;;;;5.73;3.57;;;19.80;99.90;;;;;;5081882;28;20436;-10
2023/09/27 05:50:11;;;;;;;3.80;3.10;;;19.90;99.90;;;;;;5063340;28;20170;-9
2023/09/27 05:52:37;;;;;;;5.40;3.53;;;19.90;99.90;;;;;;5065850;28;20186;-8
2023/09/27 05:55:06;;;;;;;6.83;3.37;;;19.90;99.90;;;;;;5080334;28;20175;-9
2023/09/27 05:57:33;;;;;;;5.70;2.90;;;19.90;99.90;;;;;;5084692;28;20201;-10
2023/09/27 06:00:00;;;;;;;6.70;3.27;;;19.90;99.90;;;;;;5067102;28;20171;-10
2023/09/27 06:02:30;;;;;;;5.37;3.20;;;20.00;99.90;;;;;;5050362;28;20343;-9
2023/09/27 06:05:03;;;;;;;5.47;3.40;;;19.90;99.90;;;;;;5064210;28;20170;-9
2023/09/27 06:07:29;;;;;;;8.30;3.47;;;20.00;99.90;;;;;;5071264;28;20489;-9
2023/09/27 06:09:54;;;;;;;7.10;3.20;;;20.00;99.90;;;;;;5046185;28;20168;-10
2023/09/27 06:12:20;;;;;;;8.47;3.13;;;20.00;99.90;;;;;;5065279;28;20179;-10
2023/09/27 06:14:46;;;;;;;8.13;3.60;;;20.00;99.90;;;;;;5065138;28;20556;-9
2023/09/27 06:17:15;;;;;;;7.03;3.73;;;20.00;99.90;;;;;;5064188;28;20171;-10
2023/09/27 06:19:41;;;;;;;5.83;3.57;;;20.00;99.90;;;;;;5048701;28;20206;-9
2023/09/27 06:22:07;;;;;;;4.83;3.53;;;20.10;99.90;;;;;;5050232;28;20428;-11
2023/09/27 06:24:33;;;;;;;6.83;3.27;;;20.00;99.90;;;;;;5048535;28;20556;-10
2023/09/27 06:26:59;;;;;;;5.67;3.17;;;19.90;99.90;;;;;;5046709;28;20408;-10
2023/09/27 06:29:25;;;;;;;5.67;3.60;;;20.00;99.90;;;;;;5047738;28;20175;-10
2023/09/27 06:31:51;;;;;;;4.50;3.53;;;20.10;99.90;;;;;;5067806;28;20240;-10
2023/09/27 06:34:18;;;;;;;7.63;3.57;;;20.10;99.90;;;;;;5051225;28;20187;-11
2023/09/27 06:36:48;;;;;;;11.57;3.90;;;20.20;99.90;;;;;;5049523;28;20175;-10
2023/09/27 06:39:14;;;;;;;10.27;3.83;;;20.20;99.90;;;;;;5067503;28;20387;-10
2023/09/27 06:41:41;;;;;;;8.90;3.97;;;20.30;99.90;;;;;;5048885;28;20173;-11
2023/09/27 06:44:08;;;;;;;12.43;4.10;;;20.30;99.90;;;;;;5066905;28;20190;-9
2023/09/27 06:46:35;;;;;;;7.33;3.93;;;20.30;99.90;;;;;;5065920;28;20325;-11
2023/09/27 06:49:01;;;;;;;10.03;3.83;;;20.40;99.90;;;;;;5050133;28;20194;-9
2023/09/27 06:51:27;;;;;;;7.07;4.30;;;20.40;99.90;;;;;;5067120;28;20318;-11
2023/09/27 06:53:53;;;;;;;9.37;3.53;;;20.40;99.90;;;;;;5068885;28;20195;-10
2023/09/27 06:56:19;;;;;;;13.70;3.60;;;20.30;99.90;;;;;;5070294;28;20175;-10
2023/09/27 06:58:44;;;;;;;6.53;3.80;;;20.40;99.90;;;;;;5069295;28;20620;-12
2023/09/27 07:01:11;;;;;;;7.43;3.60;;;20.40;99.90;;;;;;5075924;22;20276;-10
2023/09/27 07:03:37;;;;;;;7.57;3.80;;;20.40;99.90;;;;;;5067662;28;20184;-10
2023/09/27 07:06:03;;;;;;;9.60;3.60;;;20.40;99.90;;;;;;5069452;28;20590;-10
2023/09/27 07:08:30;;;;;;;7.97;3.40;;;20.30;99.90;;;;;;5067469;28;20166;-11
2023/09/27 07:11:09;;;;;;;7.97;4.00;;;20.40;99.90;;;;;;5067311;28;20453;-10
2023/09/27 07:13:37;;;;;;;8.20;4.10;;;20.40;99.90;;;;;;5050209;28;20333;-10
2023/09/27 07:16:20;;;;;;;7.07;3.50;;;20.40;99.90;;;;;;5051422;28;20650;-9
2023/09/27 07:18:47;;;;;;;7.40;3.73;;;20.40;99.90;;;;;;5048477;28;20210;-10
2023/09/27 07:21:13;;;;;;;8.67;4.20;;;20.40;99.90;;;;;;5048414;28;20203;-10
2023/09/27 07:23:39;;;;;;;6.43;3.50;;;20.40;99.90;;;;;;5049496;28;20685;-10
2023/09/27 07:26:06;;;;;;;9.17;4.50;;;20.40;99.90;;;;;;5066382;28;20241;-10
2023/09/27 07:28:33;;;;;;;6.37;4.10;;;20.40;99.90;;;;;;5050116;28;20241;-9
2023/09/27 07:30:59;;;;;;;11.63;4.00;;;20.40;99.90;;;;;;5067390;28;20172;-10
2023/09/27 07:33:25;;;;;;;8.23;3.93;;;20.50;99.90;;;;;;5048493;28;20272;-9
2023/09/27 07:35:52;;;;;;;6.43;3.67;;;20.40;99.90;;;;;;5067445;28;20568;-11
2023/09/27 07:38:18;;;;;;;10.67;3.97;;;20.50;99.90;;;;;;5047718;28;20210;-11
2023/09/27 07:40:48;;;;;;;9.87;4.30;;;20.50;99.90;;;;;;5048945;28;20167;-10
2023/09/27 07:43:15;;;;;;;6.27;3.97;;;20.50;99.90;;;;;;5068048;28;20179;-11
2023/09/27 07:45:43;;;;;;;6.73;4.70;;;20.50;99.90;;;;;;5068106;28;20421;-11
2023/09/27 07:48:09;;;;;;;10.70;4.40;;;20.50;99.90;;;;;;5067244;28;20219;-12
2023/09/27 07:50:37;;;;;;;8.10;4.00;;;20.50;99.90;;;;;;5064783;28;20187;-12
2023/09/27 07:53:06;;;;;;;8.27;4.00;;;20.50;99.90;;;;;;5048663;28;20451;-11
2023/09/27 07:55:32;;;;;;;7.57;3.83;;;20.50;99.90;;;;;;5048816;28;20187;-12
2023/09/27 07:57:58;;;;;;;8.93;4.30;;;20.50;99.90;;;;;;5065627;28;20203;-12
2023/09/27 08:00:29;;;;;;;5.97;3.80;;;20.50;99.90;;;;;;5067484;28;20199;-12
2023/09/27 08:02:57;;;;;;;7.00;3.90;;;20.60;99.90;;;;;;5066791;28;20282;-11
2023/09/27 08:05:25;;;;;;;5.77;4.03;;;20.60;99.90;;;;;;5050878;28;20182;-12
2023/09/27 08:07:51;;;;;;;7.83;4.40;;;20.60;99.90;;;;;;5048160;28;20179;-12
2023/09/27 08:10:18;;;;;;;6.97;4.20;;;20.70;99.90;;;;;;5067483;28;20183;-12
2023/09/27 08:12:44;;;;;;;5.10;4.07;;;20.70;99.90;;;;;;5048263;28;20186;-11
2023/09/27 08:15:12;;;;;;;6.97;3.93;;;20.80;99.90;;;;;;5065132;28;20193;-9
2023/09/27 08:17:39;;;;;;;7.70;4.17;;;20.90;99.80;;;;;;5048021;28;20466;-11
2023/09/27 08:20:09;;;;;;;6.27;3.73;;;21.10;99.40;;;;;;5047487;28;20171;-9
2023/09/27 08:22:36;;;;;;;6.13;3.97;;;21.20;98.90;;;;;;5065855;28;20168;-12
2023/09/27 08:25:06;;;;;;;6.17;3.90;;;21.30;98.60;;;;;;5046544;28;20179;-10
2023/09/27 08:27:32;;;;;;;8.83;4.40;;;21.40;98.20;;;;;;5063716;28;20275;-11
2023/09/27 08:29:58;;;;;;;6.40;4.13;;;21.50;98.30;;;;;;5046175;28;20545;-11
2023/09/27 08:32:26;;;;;;;8.20;4.37;;;21.60;98.00;;;;;;5065802;28;20219;-11
2023/09/27 08:34:52;;;;;;;8.93;4.43;;;21.60;97.90;;;;;;5047657;28;20389;-11
2023/09/27 08:37:18;;;;;;;7.27;3.90;;;21.60;98.00;;;;;;5066349;28;20164;-11
2023/09/27 08:39:44;;;;;;;5.57;3.70;;;21.60;97.90;;;;;;5064562;28;20663;-11
2023/09/27 08:42:09;;;;;;;8.50;4.27;;;21.50;98.50;;;;;;5046208;28;20675;-10
2023/09/27 08:44:36;;;;;;;4.00;3.30;;;21.50;98.20;;;;;;5031788;28;20186;-11
2023/09/27 08:47:03;;;;;;;7.67;3.90;;;21.50;98.20;;;;;;5049736;28;20175;-10
2023/09/27 08:49:28;;;;;;;6.37;3.87;;;21.60;98.20;;;;;;5066579;28;20201;-11
2023/09/27 08:51:55;;;;;;;6.13;3.73;;;21.60;98.30;;;;;;5067492;28;20195;-16
2023/09/27 08:54:22;;;;;;;5.00;3.67;;;21.60;98.00;;;;;;5052308;28;20299;-9
2023/09/27 08:56:53;;;;;;;3.93;3.30;;;21.60;98.10;;;;;;5067554;28;20430;-10
2023/09/27 08:59:20;;;;;;;6.00;3.63;;;21.60;98.50;;;;;;5050458;28;20203;-10
2023/09/27 09:01:47;;;;;;;5.20;3.50;;;21.60;98.40;;;;;;5049219;28;20184;-10
2023/09/27 09:04:13;;;;;;;7.70;4.03;;;21.60;98.30;;;;;;5050004;28;20233;-9
2023/09/27 09:06:40;;;;;;;4.43;3.70;;;21.50;98.40;;;;;;5048787;28;20397;-12
2023/09/27 09:09:13;;;;;;;6.87;3.97;;;21.50;98.40;;;;;;5031970;28;20418;-12
2023/09/27 09:11:49;;;;;;;5.23;3.50;;;21.50;98.80;;;;;;5064431;28;20541;-9
2023/09/27 09:14:22;;;;;;;6.60;3.63;;;21.50;99.10;;;;;;5048077;28;20175;-9
2023/09/27 09:16:52;;;;;;;6.33;3.80;;;21.50;98.80;;;;;;5065534;28;20279;-10
2023/09/27 09:19:23;;;;;;;5.70;3.73;;;21.50;98.80;;;;;;5047965;28;20257;-9
2023/09/27 09:22:00;;;;;;;4.77;3.50;;;21.60;98.50;;;;;;5047872;28;20168;-15
2023/09/27 09:24:26;;;;;;;6.07;3.70;;;21.60;98.40;;;;;;5047851;28;20167;-10
2023/09/27 09:27:09;;;;;;;6.70;3.60;;;21.60;98.40;;;;;;5048403;28;20201;-11
2023/09/27 09:29:49;;;;;;;4.33;3.50;;;21.70;98.20;;;;;;5047023;28;20279;-11
2023/09/27 09:32:20;;;;;;;7.00;3.83;;;21.70;97.80;;;;;;5045780;28;20407;-11
2023/09/27 09:34:51;;;;;;;5.13;3.57;;;21.70;97.90;;;;;;5064057;28;20170;-11
2023/09/27 09:37:20;;;;;;;7.13;3.73;;;21.70;98.30;;;;;;5047252;28;20175;-11
2023/09/27 09:39:48;;;;;;;5.63;4.00;;;21.80;98.00;;;;;;5047837;28;20207;-12
2023/09/27 09:42:28;;;;;;;7.60;3.87;;;21.70;98.60;;;;;;5065807;28;20167;-11
2023/09/27 09:45:06;;;;;;;4.50;3.20;;;21.80;98.40;;;;;;5047806;28;20183;-10
2023/09/27 09:47:37;;;;;;;4.83;3.60;;;21.80;98.60;;;;;;5047612;28;20176;-12
2023/09/27 09:50:08;;;;;;;6.70;3.77;;;21.80;98.80;;;;;;5047845;28;20393;-10
2023/09/27 09:52:38;;;;;;;6.67;3.63;;;21.90;98.70;;;;;;5047841;28;20583;-10
2023/09/27 09:55:10;;;;;;;6.73;3.37;;;21.90;98.90;;;;;;5064652;28;20442;-11
2023/09/27 09:57:36;;;;;;;6.53;4.20;;;21.90;98.60;;;;;;5064305;28;20160;-10
2023/09/27 10:00:11;;;;;;;5.07;3.57;;;21.90;99.00;;;;;;5047075;28;20190;-11
2023/09/27 10:02:46;;;;;;;4.27;3.13;;;21.90;98.80;;;;;;5046293;28;20183;-12
2023/09/27 10:05:17;;;;;;;5.77;3.57;;;22.00;98.80;;;;;;5069771;28;20167;-11
2023/09/27 10:07:45;;;;;;;5.23;3.17;;;22.00;99.00;;;;;;5067502;28;20160;-10
2023/09/27 10:10:13;;;;;;;3.97;3.30;;;22.00;98.80;;;;;;5064335;28;20179;-11
2023/09/27 10:12:46;;;;;;;5.77;3.60;;;22.00;98.30;;;;;;5046672;28;20814;-11
2023/09/27 10:15:17;;;;;;;3.87;3.30;;;22.10;98.60;;;;;;5062689;28;20365;-10
2023/09/27 10:17:43;;;;;;;6.40;3.90;;;22.20;98.20;;;;;;5062116;28;20160;-9
2023/09/27 10:20:14;;;;;;;6.20;3.33;;;22.20;98.00;;;;;;5044151;28;20431;-10
2023/09/27 10:22:47;;;;;;;4.37;3.30;;;22.30;97.90;;;;;;5043626;28;20575;-11
2023/09/27 10:25:31;;;;;;;4.03;3.03;;;22.40;97.60;;;;;;5063237;28;20260;-11
2023/09/27 10:28:04;;;;;;;5.63;3.20;;;22.50;97.60;;;;;;5063704;28;20164;-11
2023/09/27 10:30:42;;;;;;;5.13;3.30;;;22.60;97.00;;;;;;5062713;28;20179;-11
2023/09/27 10:33:17;;;;;;;5.57;3.50;;;22.60;97.50;;;;;;5048844;28;20183;-12
2023/09/27 10:36:03;;;;;;;4.70;3.17;;;22.70;97.50;;;;;;5065510;28;20434;-11
2023/09/27 10:38:41;;;;;;;3.87;3.10;;;22.80;96.40;;;;;;5046962;28;20513;-11
2023/09/27 10:41:07;;;;;;;4.90;3.40;;;22.80;96.60;;;;;;5064361;28;20511;-12
2023/09/27 10:43:38;;;;;;;4.63;3.40;;;22.90;96.20;;;;;;5053874;28;20271;-11
2023/09/27 10:46:04;;;;;;;3.60;2.97;;;22.80;96.30;;;;;;5037094;28;20207;-12
2023/09/27 10:48:35;;;;;;;4.77;3.37;;;22.70;96.50;;;;;;5051525;28;20294;-11
2023/09/27 10:51:02;;;;;;;3.83;3.10;;;22.70;97.00;;;;;;5045269;28;20492;-11
2023/09/27 10:53:28;;;;;;;4.80;3.20;;;22.70;96.80;;;;;;5046586;28;20360;-12
2023/09/27 10:55:54;;;;;;;5.90;3.30;;;22.70;96.90;;;;;;5046366;28;20165;-11
2023/09/27 10:58:20;;;;;;;3.93;3.00;;;22.70;96.90;;;;;;5043057;28;20227;-10
2023/09/27 11:00:55;;;;;;;5.60;3.30;;;22.80;97.00;;;;;;5041368;28;20326;-10
2023/09/27 11:03:21;;;;;;;4.30;3.10;;;22.80;96.70;;;;;;5041434;28;20206;-11
2023/09/27 11:05:47;;;;;;;4.37;3.20;;;22.80;96.60;;;;;;5025585;28;20395;-11
2023/09/27 11:08:25;;;;;;;3.67;2.80;;;22.80;96.80;;;;;;5045739;28;20211;-11
2023/09/27 11:10:55;;;;;;;4.30;3.13;;;22.90;96.50;;;;;;5045142;28;20175;-11
2023/09/27 11:13:21;;;;;;;4.67;3.10;;;22.90;96.50;;;;;;5024787;28;20168;-11
2023/09/27 11:15:47;;;;;;;4.13;2.80;;;23.00;96.60;;;;;;5045048;28;20184;-11
2023/09/27 11:18:13;;;;;;;3.70;2.80;;;23.00;96.20;;;;;;5043233;28;20292;-10
2023/09/27 11:20:39;;;;;;;4.53;3.10;;;23.00;96.30;;;;;;5042997;28;20274;-10
2023/09/27 11:23:05;;;;;;;3.70;2.70;;;23.00;96.30;;;;;;5024969;28;20172;-12
2023/09/27 11:25:33;;;;;;;5.77;3.23;;;23.00;96.20;;;;;;5042533;28;20475;-12
2023/09/27 11:27:59;;;;;;;3.63;2.77;;;23.00;96.10;;;;;;5023293;28;20601;-12
2023/09/27 11:30:34;;;;;;;3.50;2.80;;;23.10;96.00;;;;;;5024847;28;20632;-12
2023/09/27 11:33:04;;;;;;;3.07;2.47;;;23.10;96.00;;;;;;5024865;28;20167;-11
2023/09/27 11:35:31;;;;;;;3.67;2.90;;;23.10;95.80;;;;;;5025299;28;20175;-12
2023/09/27 11:38:10;;;;;;;3.93;2.47;;;23.10;95.80;;;;;;5026868;28;20245;-12
2023/09/27 11:40:37;;;;;;;3.70;2.80;;;23.10;96.20;;;;;;5044812;28;20160;-12
2023/09/27 11:43:04;;;;;;;2.90;2.50;;;23.10;96.00;;;;;;5025757;28;20420;-12
2023/09/27 11:45:42;;;;;;;5.37;2.70;;;23.10;96.00;;;;;;5041046;28;20429;-12
2023/09/27 11:48:09;;;;;;;4.30;2.70;;;23.10;95.80;;;;;;5042871;28;20176;-13
2023/09/27 11:50:35;;;;;;;4.20;2.40;;;23.20;95.80;;;;;;5045497;28;20168;-12
2023/09/27 11:53:01;;;;;;;3.77;2.60;;;23.20;95.80;;;;;;5026317;28;20179;-12
2023/09/27 11:55:26;;;;;;;2.70;2.30;;;23.20;95.80;;;;;;5044827;28;20211;-13
2023/09/27 11:57:57;;;;;;;2.60;2.40;;;23.20;95.60;;;;;;5045093;28;20187;-11
2023/09/27 12:00:23;;;;;;;2.53;2.30;;;23.20;95.70;;;;;;5028412;28;20604;-12
2023/09/27 12:02:49;;;;;;;3.37;2.50;;;23.30;95.70;;;;;;5045987;28;20173;-12
2023/09/27 12:05:15;;;;;;;3.07;2.40;;;23.30;95.50;;;;;;5044828;28;20216;-12
2023/09/27 12:07:43;;;;;;;2.90;2.23;;;23.50;95.00;;;;;;5047219;28;20230;-12
2023/09/27 12:10:12;;;;;;;3.37;2.37;;;23.40;95.00;;;;;;5044919;28;20247;-11
2023/09/27 12:12:37;;;;;;;3.43;2.30;;;23.40;94.70;;;;;;5029155;28;20172;-11
2023/09/27 12:15:04;;;;;;;3.60;2.40;;;23.50;94.40;;;;;;5046436;28;20307;-13
2023/09/27 12:17:30;;;;;;;4.07;2.30;;;23.50;94.50;;;;;;5028305;28;20432;-12
2023/09/27 12:19:56;;;;;;;2.37;2.17;;;23.50;94.50;;;;;;5028315;28;20207;-13
2023/09/27 12:22:24;;;;;;;4.57;2.33;;;23.70;94.30;;;;;;5046901;28;20173;-12
2023/09/27 12:24:50;;;;;;;2.70;2.30;;;23.90;93.60;;;;;;5027120;28;20234;-12
2023/09/27 12:27:16;;;;;;;2.70;1.93;;;23.80;94.00;;;;;;5046285;28;20264;-12
2023/09/27 12:29:42;;;;;;;2.20;2.00;;;24.00;93.60;;;;;;5044937;28;20482;-12
2023/09/27 12:32:08;;;;;;;3.27;2.00;;;23.90;94.00;;;;;;5045824;28;20230;-12
2023/09/27 12:34:34;;;;;;;3.53;2.40;;;23.80;93.80;;;;;;5028334;28;20184;-12
2023/09/27 12:36:59;;;;;;;2.93;1.97;;;24.10;92.20;;;;;;5028373;28;20171;-11
2023/09/27 12:39:26;;;;;;;3.13;2.10;;;24.40;89.90;;;;;;5045979;28;20203;-12
2023/09/27 12:41:59;;;;;;;2.40;1.87;;;24.50;89.80;;;;;;5049393;28;20168;-12
2023/09/27 12:44:26;;;;;;;2.73;2.17;;;24.40;88.50;;;;;;5033157;28;20209;-12
2023/09/27 12:46:51;;;;;;;3.40;1.93;;;24.20;90.40;;;;;;5026309;28;20245;-12
2023/09/27 12:49:18;;;;;;;3.53;2.20;;;24.20;90.60;;;;;;5025946;28;20386;-12
2023/09/27 12:51:44;;;;;;;2.40;2.20;;;24.30;89.50;;;;;;5025810;28;20286;-12
2023/09/27 12:54:10;;;;;;;2.40;2.00;;;24.30;87.60;;;;;;5025145;28;20503;-12